createdAt,value
2023-03-25T00:01:41.138Z,3.58
2023-03-25T00:06:36.617Z,3.13
2023-03-25T00:09:04.258Z,3.70
2023-03-25T00:16:21.959Z,4.65
2023-03-25T00:18:49.987Z,3.58
2023-03-25T00:21:18.914Z,3.30
2023-03-25T00:23:45.818Z,4.07
2023-03-25T00:28:38.480Z,5.20
2023-03-25T00:31:06.785Z,3.88
2023-03-25T00:33:33.483Z,3.67
2023-03-25T00:36:00.355Z,3.50
2023-03-25T00:38:33.599Z,4.13
2023-03-25T00:41:23.375Z,4.07
2023-03-25T00:46:19.395Z,4.55
2023-03-25T00:48:46.225Z,3.97
2023-03-25T00:51:14.821Z,3.30
2023-03-25T00:53:41.574Z,3.45
2023-03-25T00:56:09.626Z,3.20
2023-03-25T00:58:36.441Z,3.83
2023-03-25T01:01:08.228Z,3.58
2023-03-25T01:03:34.967Z,3.35
2023-03-25T01:06:01.671Z,4.43
2023-03-25T01:08:29.778Z,3.38
2023-03-25T01:10:58.823Z,4.18
2023-03-25T01:13:25.672Z,3.10
2023-03-25T01:15:52.873Z,2.58
2023-03-25T01:18:19.868Z,3.80
2023-03-25T01:20:46.558Z,3.22
2023-03-25T01:23:13.287Z,3.17
2023-03-25T01:25:40.007Z,2.95
2023-03-25T01:28:06.632Z,3.42
2023-03-25T01:33:00.215Z,2.95
2023-03-25T01:35:26.983Z,2.88
2023-03-25T01:42:46.778Z,2.95
2023-03-25T01:45:24.887Z,3.35
2023-03-25T01:47:55.151Z,2.33
2023-03-25T01:50:22.593Z,2.55
2023-03-25T01:55:18.182Z,2.80
2023-03-25T01:57:46.396Z,3.03
2023-03-25T02:00:15.777Z,2.78
2023-03-25T02:02:43.602Z,2.70
2023-03-25T02:05:12.257Z,2.53
2023-03-25T02:07:43.057Z,2.45
2023-03-25T02:10:12.361Z,2.60
2023-03-25T02:12:39.233Z,2.85
2023-03-25T02:15:07.330Z,2.40
2023-03-25T02:17:43.645Z,2.75
2023-03-25T02:20:30.638Z,2.40
2023-03-25T02:22:57.328Z,3.38
2023-03-25T02:25:23.961Z,3.03
2023-03-25T02:28:17.989Z,2.50
2023-03-25T02:31:05.768Z,3.05
2023-03-25T02:43:56.020Z,2.60
2023-03-25T02:46:23.510Z,3.00
2023-03-25T02:48:51.233Z,4.15
2023-03-25T02:51:20.656Z,2.85
2023-03-25T02:53:48.325Z,2.97
2023-03-25T02:56:17.073Z,2.65
2023-03-25T02:58:45.192Z,3.20
2023-03-25T03:01:14.997Z,2.80
2023-03-25T03:03:42.169Z,1.70
2023-03-25T03:06:14.398Z,1.40
2023-03-25T03:08:47.062Z,1.88
2023-03-25T03:11:17.422Z,1.50
2023-03-25T03:14:02.918Z,1.80
2023-03-25T03:16:31.065Z,1.40
2023-03-25T03:19:02.835Z,1.52
2023-03-25T03:21:30.141Z,1.15
2023-03-25T03:23:56.810Z,1.35
2023-03-25T03:26:23.458Z,1.17
2023-03-25T03:28:55.583Z,1.63
2023-03-25T03:31:48.171Z,1.25
2023-03-25T03:34:41.234Z,1.52
2023-03-25T03:37:08.889Z,1.77
2023-03-25T03:39:36.568Z,1.17
2023-03-25T03:42:19.000Z,1.55
2023-03-25T03:44:47.819Z,1.02
2023-03-25T03:47:17.282Z,1.73
2023-03-25T03:52:12.698Z,0.98
2023-03-25T03:54:44.164Z,1.10
2023-03-25T03:59:52.655Z,1.42
2023-03-25T04:02:39.716Z,1.38
2023-03-25T04:05:09.138Z,1.48
2023-03-25T04:10:23.054Z,1.33
2023-03-25T04:12:52.070Z,1.52
2023-03-25T04:15:19.089Z,1.50
2023-03-25T04:20:14.724Z,2.30
2023-03-25T04:22:45.976Z,1.75
2023-03-25T04:32:31.515Z,1.58
2023-03-25T04:34:58.234Z,1.80
2023-03-25T04:37:25.836Z,1.60
2023-03-25T04:39:54.006Z,2.05
2023-03-25T04:42:20.776Z,1.77
2023-03-25T04:44:47.503Z,2.10
2023-03-25T04:47:16.356Z,2.20
2023-03-25T04:49:45.276Z,3.10
2023-03-25T04:54:38.681Z,2.75
2023-03-25T04:57:05.436Z,2.28
2023-03-25T04:59:32.072Z,1.95
2023-03-25T05:01:58.742Z,2.70
2023-03-25T05:04:25.539Z,3.30
2023-03-25T05:06:52.241Z,3.17
2023-03-25T05:11:46.347Z,3.17
2023-03-25T05:14:14.289Z,2.60
2023-03-25T05:21:37.667Z,2.92
2023-03-25T05:29:06.833Z,3.28
2023-03-25T05:31:33.507Z,2.90
2023-03-25T05:34:00.162Z,3.33
2023-03-25T05:36:27.321Z,3.22
2023-03-25T05:38:54.630Z,3.67
2023-03-25T05:46:17.168Z,3.55
2023-03-25T05:51:15.746Z,3.63
2023-03-25T05:53:43.816Z,3.17
2023-03-25T06:01:04.380Z,3.90
2023-03-25T06:03:34.443Z,3.42
2023-03-25T06:06:01.794Z,3.28
2023-03-25T06:08:30.026Z,4.07
2023-03-25T06:11:00.785Z,3.45
2023-03-25T06:15:56.482Z,3.08
2023-03-25T06:18:26.351Z,2.80
2023-03-25T06:20:54.304Z,3.83
2023-03-25T06:23:23.794Z,3.35
2023-03-25T06:25:51.430Z,4.65
2023-03-25T06:28:20.951Z,3.83
2023-03-25T06:30:48.329Z,3.75
2023-03-25T06:33:16.294Z,3.67
2023-03-25T06:36:02.997Z,4.18
2023-03-25T06:38:30.158Z,3.42
2023-03-25T06:40:57.113Z,2.90
2023-03-25T06:48:18.695Z,3.25
2023-03-25T06:53:11.505Z,4.82
2023-03-25T06:55:38.829Z,2.75
2023-03-25T06:58:05.866Z,3.60
2023-03-25T07:00:32.666Z,4.63
2023-03-25T07:02:59.354Z,4.10
2023-03-25T07:05:26.314Z,3.72
2023-03-25T07:07:53.041Z,3.75
2023-03-25T07:10:19.794Z,4.45
2023-03-25T07:12:46.484Z,3.25
2023-03-25T07:15:13.574Z,4.15
2023-03-25T07:17:43.284Z,3.80
2023-03-25T07:20:14.493Z,4.28
2023-03-25T07:22:44.087Z,3.97
2023-03-25T07:27:36.560Z,3.95
2023-03-25T07:30:08.720Z,4.10
2023-03-25T07:32:35.487Z,3.15
2023-03-25T07:35:02.394Z,3.50
2023-03-25T07:37:28.960Z,4.10
2023-03-25T07:39:55.752Z,3.45
2023-03-25T07:42:22.624Z,4.70
2023-03-25T07:47:41.904Z,2.75
2023-03-25T07:50:08.948Z,4.15
2023-03-25T07:52:36.322Z,3.10
2023-03-25T07:55:03.154Z,4.03
2023-03-25T07:57:30.096Z,4.15
2023-03-25T07:59:58.390Z,4.22
2023-03-25T08:02:25.144Z,3.63
2023-03-25T08:04:54.575Z,3.85
2023-03-25T08:07:21.657Z,3.28
2023-03-25T08:09:48.355Z,3.20
2023-03-25T08:12:15.021Z,4.03
2023-03-25T08:14:41.733Z,5.30
2023-03-25T08:17:08.432Z,4.78
2023-03-25T08:19:35.042Z,4.28
2023-03-25T08:22:01.956Z,6.25
2023-03-25T08:24:30.146Z,4.80
2023-03-25T08:26:56.830Z,4.18
2023-03-25T08:29:24.812Z,5.75
2023-03-25T08:31:54.784Z,5.65
2023-03-25T08:34:28.446Z,3.83
2023-03-25T08:39:22.188Z,3.83
2023-03-25T08:41:48.932Z,4.10
2023-03-25T08:44:15.803Z,4.25
2023-03-25T08:46:42.591Z,4.03
2023-03-25T08:49:09.264Z,3.92
2023-03-25T08:51:36.000Z,3.38
2023-03-25T08:54:02.854Z,3.47
2023-03-25T08:56:30.722Z,3.83
2023-03-25T08:58:57.483Z,4.25
2023-03-25T09:01:24.472Z,3.92
2023-03-25T09:03:51.435Z,4.75
2023-03-25T09:06:18.532Z,3.70
2023-03-25T09:08:45.250Z,4.50
2023-03-25T09:11:24.291Z,4.70
2023-03-25T09:13:57.313Z,4.28
2023-03-25T09:16:24.176Z,4.47
2023-03-25T09:18:51.021Z,5.50
2023-03-25T09:26:08.809Z,4.93
2023-03-25T09:31:04.003Z,4.72
2023-03-25T09:33:31.069Z,4.13
2023-03-25T09:36:00.550Z,5.03
2023-03-25T09:38:33.064Z,4.35
2023-03-25T09:41:02.596Z,5.63
2023-03-25T09:43:36.298Z,4.38
2023-03-25T09:46:03.690Z,4.85
2023-03-25T09:48:35.433Z,4.47
2023-03-25T09:51:05.306Z,4.03
2023-03-25T09:53:35.651Z,5.20
2023-03-25T09:56:04.176Z,3.97
2023-03-25T09:58:41.587Z,4.07
2023-03-25T10:01:08.318Z,4.95
2023-03-25T10:12:19.310Z,4.85
2023-03-25T10:15:09.375Z,4.13
2023-03-25T10:17:57.577Z,4.65
2023-03-25T10:27:51.402Z,4.55
2023-03-25T10:37:49.508Z,4.35
2023-03-25T10:40:27.503Z,3.95
2023-03-25T10:42:56.915Z,4.07
2023-03-25T10:45:25.062Z,4.15
2023-03-25T10:47:54.200Z,4.22
2023-03-25T10:50:21.741Z,4.18
2023-03-25T10:52:49.141Z,4.38
2023-03-25T11:00:18.406Z,4.30
2023-03-25T11:05:15.941Z,4.32
2023-03-25T11:15:31.204Z,4.40
2023-03-25T11:18:00.800Z,5.38
2023-03-25T11:23:13.815Z,4.55
2023-03-25T11:25:42.152Z,4.65
2023-03-25T11:28:18.011Z,4.10
2023-03-25T11:31:03.269Z,4.68
2023-03-25T11:33:29.995Z,4.45
2023-03-25T11:35:56.893Z,4.03
2023-03-25T11:43:19.827Z,4.53
2023-03-25T11:53:15.429Z,3.90
2023-03-25T11:55:46.167Z,4.63
2023-03-25T11:58:18.084Z,4.03
2023-03-25T12:00:53.525Z,3.33
2023-03-25T12:06:05.001Z,4.05
2023-03-25T12:08:43.204Z,4.05
2023-03-25T12:11:33.030Z,3.80
2023-03-25T12:14:18.547Z,5.75
2023-03-25T12:16:57.213Z,4.45
2023-03-25T12:21:52.763Z,4.72
2023-03-25T12:24:19.433Z,4.60
2023-03-25T12:26:49.219Z,4.40
2023-03-25T12:29:15.937Z,3.45
2023-03-25T12:34:16.766Z,3.63
2023-03-25T12:36:43.418Z,4.25
2023-03-25T12:41:58.623Z,4.43
2023-03-25T12:44:31.128Z,4.80
2023-03-25T12:47:13.140Z,4.53
2023-03-25T12:49:58.532Z,3.88
2023-03-25T12:52:28.054Z,4.30
2023-03-25T12:57:51.191Z,4.60
2023-03-25T13:10:49.191Z,4.00
2023-03-25T13:15:55.474Z,3.35
2023-03-25T13:18:25.988Z,3.42
2023-03-25T13:20:58.502Z,3.97
2023-03-25T13:26:14.768Z,3.05
2023-03-25T13:31:27.596Z,3.45
2023-03-25T13:39:16.474Z,3.15
2023-03-25T13:41:43.215Z,3.60
2023-03-25T13:44:30.550Z,3.53
2023-03-25T13:47:00.432Z,3.30
2023-03-25T13:49:29.962Z,3.58
2023-03-25T13:51:57.132Z,3.47
2023-03-25T13:59:40.307Z,3.13
2023-03-25T14:04:43.005Z,3.22
2023-03-25T14:07:10.740Z,4.20
2023-03-25T14:09:56.652Z,3.70
2023-03-25T14:12:31.874Z,3.00
2023-03-25T14:14:59.959Z,4.90
2023-03-25T14:17:28.987Z,4.45
2023-03-25T14:19:58.387Z,4.60
2023-03-25T14:24:56.718Z,2.78
2023-03-25T14:27:31.391Z,2.88
2023-03-25T14:30:00.159Z,3.97
2023-03-25T14:32:32.345Z,3.95
2023-03-25T14:35:18.101Z,3.88
2023-03-25T14:37:44.857Z,4.00
2023-03-25T14:40:30.518Z,3.30
2023-03-25T14:46:02.316Z,4.28
2023-03-25T14:48:34.515Z,3.70
2023-03-25T14:51:14.792Z,3.40
2023-03-25T15:03:44.260Z,3.75
2023-03-25T15:06:17.025Z,4.05
2023-03-25T15:08:52.156Z,4.28
2023-03-25T15:11:27.587Z,4.28
2023-03-25T15:19:54.069Z,4.10
2023-03-25T15:22:24.626Z,2.53
2023-03-25T15:24:56.818Z,3.20
2023-03-25T15:27:42.404Z,3.70
2023-03-25T15:30:27.648Z,3.78
2023-03-25T15:33:16.850Z,3.85
2023-03-25T15:43:34.263Z,3.35
2023-03-25T15:51:23.993Z,3.92
2023-03-25T15:53:58.315Z,4.22
2023-03-25T16:01:27.736Z,3.53
2023-03-25T16:08:51.744Z,3.55
2023-03-25T16:11:19.153Z,3.38
2023-03-25T16:13:48.485Z,4.28
2023-03-25T16:16:17.406Z,3.45
2023-03-25T16:18:45.884Z,3.30
2023-03-25T16:23:38.807Z,3.33
2023-03-25T16:26:06.112Z,3.13
2023-03-25T16:35:57.735Z,2.95
2023-03-25T16:38:25.595Z,3.47
2023-03-25T16:40:54.391Z,3.78
2023-03-25T16:43:23.577Z,3.85
2023-03-25T16:45:51.731Z,3.05
2023-03-25T16:48:21.914Z,3.63
2023-03-25T16:53:16.091Z,4.32
2023-03-25T16:56:04.633Z,4.63
2023-03-25T16:58:31.371Z,5.53
2023-03-25T17:01:00.843Z,3.60
2023-03-25T17:11:03.006Z,4.35
2023-03-25T17:13:32.001Z,4.43
2023-03-25T17:15:58.923Z,3.88
2023-03-25T17:18:28.778Z,4.05
2023-03-25T17:20:57.760Z,2.90
2023-03-25T17:23:42.734Z,3.92
2023-03-25T17:26:20.133Z,3.38
2023-03-25T17:28:53.272Z,3.15
2023-03-25T17:33:52.952Z,2.83
2023-03-25T17:36:20.744Z,3.03
2023-03-25T17:38:52.987Z,3.03
2023-03-25T17:41:23.021Z,3.25
2023-03-25T17:43:52.561Z,3.15
2023-03-25T17:46:22.305Z,3.83
2023-03-25T17:48:50.839Z,4.97
2023-03-25T17:51:18.794Z,3.28
2023-03-25T17:53:45.667Z,3.05
2023-03-25T17:56:16.438Z,3.50
2023-03-25T18:01:12.888Z,3.17
2023-03-25T18:03:40.309Z,3.22
2023-03-25T18:06:07.328Z,3.22
2023-03-25T18:13:27.332Z,3.70
2023-03-25T18:15:54.548Z,3.22
2023-03-25T18:18:24.346Z,3.05
2023-03-25T18:20:51.910Z,2.92
2023-03-25T18:23:19.342Z,3.65
2023-03-25T18:25:46.509Z,2.88
2023-03-25T18:30:46.040Z,3.58
2023-03-25T18:33:13.752Z,3.70
2023-03-25T18:35:43.798Z,3.20
2023-03-25T18:40:45.067Z,3.58
2023-03-25T18:43:11.916Z,3.08
2023-03-25T18:45:38.828Z,3.35
2023-03-25T18:48:05.738Z,3.08
2023-03-25T18:50:34.007Z,3.15
2023-03-25T18:55:27.668Z,3.72
2023-03-25T18:57:55.111Z,4.70
2023-03-25T19:02:50.739Z,4.65
2023-03-25T19:05:17.784Z,5.03
2023-03-25T19:07:44.757Z,4.18
2023-03-25T19:10:15.358Z,5.68
2023-03-25T19:12:42.052Z,6.18
2023-03-25T19:17:34.588Z,5.95
2023-03-25T19:20:01.358Z,3.40
2023-03-25T19:22:29.658Z,3.00
2023-03-25T19:24:56.442Z,3.85
2023-03-25T19:27:23.079Z,3.05
2023-03-25T19:29:50.473Z,4.00
2023-03-25T19:32:17.369Z,4.03
2023-03-25T19:34:47.858Z,3.40
2023-03-25T19:37:16.012Z,3.90
2023-03-25T19:39:42.777Z,4.10
2023-03-25T19:42:09.967Z,3.83
2023-03-25T19:47:02.159Z,3.70
2023-03-25T19:49:39.106Z,3.42
2023-03-25T19:57:00.741Z,2.95
2023-03-25T20:01:55.649Z,3.63
2023-03-25T20:04:22.440Z,3.90
2023-03-25T20:06:49.488Z,3.97
2023-03-25T20:09:16.900Z,4.65
2023-03-25T20:11:46.260Z,2.95
2023-03-25T20:14:13.108Z,3.30
2023-03-25T20:16:39.812Z,3.78
2023-03-25T20:19:06.488Z,3.08
2023-03-25T20:23:58.877Z,3.25
2023-03-25T20:34:42.394Z,3.53
2023-03-25T20:46:54.772Z,3.45
2023-03-25T20:49:24.328Z,3.90
2023-03-25T20:51:51.657Z,3.78
2023-03-25T20:54:18.730Z,3.13
2023-03-25T20:56:46.687Z,3.55
2023-03-25T21:01:43.311Z,4.05
2023-03-25T21:04:11.683Z,4.78
2023-03-25T21:06:38.475Z,3.00
2023-03-25T21:09:10.734Z,3.88
2023-03-25T21:11:37.768Z,3.15
2023-03-25T21:16:31.315Z,3.42
2023-03-25T21:19:05.396Z,3.28
2023-03-25T21:21:32.440Z,3.13
2023-03-25T21:23:59.271Z,2.58
2023-03-25T21:26:26.166Z,3.15
2023-03-25T21:31:22.354Z,2.97
2023-03-25T21:33:51.449Z,2.95
2023-03-25T21:36:20.021Z,3.55
2023-03-25T21:38:47.248Z,3.00
2023-03-25T21:41:14.047Z,3.30
2023-03-25T21:43:42.279Z,3.15
2023-03-25T21:46:10.367Z,3.17
2023-03-25T21:48:40.561Z,4.13
2023-03-25T21:51:12.283Z,3.90
2023-03-25T21:53:43.870Z,3.10
2023-03-25T22:01:07.751Z,4.18
2023-03-25T22:11:06.522Z,2.95
2023-03-25T22:13:33.430Z,3.13
2023-03-25T22:16:00.496Z,3.13
2023-03-25T22:18:27.565Z,3.38
2023-03-25T22:20:54.639Z,3.65
2023-03-25T22:23:21.770Z,2.78
2023-03-25T22:25:48.503Z,2.50
2023-03-25T22:28:15.255Z,2.63
2023-03-25T22:30:41.885Z,4.85
2023-03-25T22:35:34.116Z,3.08
2023-03-25T22:38:00.893Z,2.33
2023-03-25T22:45:19.818Z,2.20
2023-03-25T22:47:46.543Z,2.45
2023-03-25T22:50:13.256Z,2.47
2023-03-25T23:04:49.704Z,2.00
2023-03-25T23:07:16.659Z,2.50
2023-03-25T23:09:44.050Z,2.33
2023-03-25T23:12:14.979Z,2.05
2023-03-25T23:17:08.667Z,1.63
2023-03-25T23:19:35.415Z,1.75
2023-03-25T23:31:44.469Z,1.63
2023-03-25T23:34:13.179Z,0.85
2023-03-25T23:36:40.876Z,1.20
2023-03-25T23:39:08.857Z,1.10
2023-03-25T23:41:35.825Z,0.75
2023-03-25T23:44:02.955Z,0.90
2023-03-25T23:48:55.768Z,0.80
2023-03-25T23:51:23.775Z,0.77
2023-03-25T23:53:51.264Z,1.02
2023-03-25T23:56:19.462Z,0.60
2023-03-25T23:58:46.144Z,0.52
